sensor_id;sensor_type;location;lat;lon;timestamp;pressure;altitude;pressure_sealevel;temperature;humidity
64516;BME280;50891;37.380;-122.076;2022-09-30T00:00:09;100936.53;;;31.28;34.09
64516;BME280;50891;37.380;-122.076;2022-09-30T00:02:35;100936.50;;;31.18;34.71
64516;BME280;50891;37.380;-122.076;2022-09-30T00:05:01;100942.97;;;31.12;34.93
64516;BME280;50891;37.380;-122.076;2022-09-30T00:07:27;100937.84;;;31.15;35.12
64516;BME280;50891;37.380;-122.076;2022-09-30T00:09:54;100931.28;;;31.06;35.48
64516;BME280;50891;37.380;-122.076;2022-09-30T00:12:20;100936.19;;;31.14;35.59
64516;BME280;50891;37.380;-122.076;2022-09-30T00:14:46;100928.81;;;31.04;35.55
64516;BME280;50891;37.380;-122.076;2022-09-30T00:17:12;100931.03;;;31.13;34.87
64516;BME280;50891;37.380;-122.076;2022-09-30T00:19:38;100917.38;;;31.02;34.39
64516;BME280;50891;37.380;-122.076;2022-09-30T00:22:05;100929.91;;;31.03;33.96
64516;BME280;50891;37.380;-122.076;2022-09-30T00:24:31;100926.63;;;31.01;33.92
64516;BME280;50891;37.380;-122.076;2022-09-30T00:26:57;100923.94;;;31.12;33.93
64516;BME280;50891;37.380;-122.076;2022-09-30T00:29:23;100917.44;;;31.13;33.88
64516;BME280;50891;37.380;-122.076;2022-09-30T00:31:49;100925.03;;;31.11;33.58
64516;BME280;50891;37.380;-122.076;2022-09-30T00:34:16;100923.94;;;31.12;33.92
64516;BME280;50891;37.380;-122.076;2022-09-30T00:36:45;100922.66;;;31.19;33.84
64516;BME280;50891;37.380;-122.076;2022-09-30T00:39:18;100922.09;;;31.17;33.63
64516;BME280;50891;37.380;-122.076;2022-09-30T00:41:47;100906.53;;;31.02;33.94
64516;BME280;50891;37.380;-122.076;2022-09-30T00:44:42;100924.75;;;31.07;33.73
64516;BME280;50891;37.380;-122.076;2022-09-30T00:49:43;100921.78;;;31.08;33.85
64516;BME280;50891;37.380;-122.076;2022-09-30T00:52:09;100910.09;;;31.13;33.85
64516;BME280;50891;37.380;-122.076;2022-09-30T00:54:36;100916.63;;;31.12;34.16
64516;BME280;50891;37.380;-122.076;2022-09-30T00:57:04;100921.53;;;31.15;33.84
64516;BME280;50891;37.380;-122.076;2022-09-30T00:59:41;100919.34;;;31.12;34.22
64516;BME280;50891;37.380;-122.076;2022-09-30T01:02:10;100916.63;;;31.12;34.03
64516;BME280;50891;37.380;-122.076;2022-09-30T01:04:40;100915.81;;;31.12;33.90
64516;BME280;50891;37.380;-122.076;2022-09-30T01:07:09;100908.75;;;31.16;33.91
64516;BME280;50891;37.380;-122.076;2022-09-30T01:09:39;100914.75;;;31.18;34.31
64516;BME280;50891;37.380;-122.076;2022-09-30T01:12:15;100910.66;;;31.15;34.20
64516;BME280;50891;37.380;-122.076;2022-09-30T01:14:42;100920.09;;;31.02;34.57
64516;BME280;50891;37.380;-122.076;2022-09-30T01:17:59;100918.16;;;30.93;34.58
64516;BME280;50891;37.380;-122.076;2022-09-30T01:20:17;100924.94;;;30.85;34.59
64516;BME280;50891;37.380;-122.076;2022-09-30T01:23:10;100910.81;;;30.93;34.46
64516;BME280;50891;37.380;-122.076;2022-09-30T01:34:42;100926.13;;;30.67;35.12
64516;BME280;50891;37.380;-122.076;2022-09-30T01:37:35;100934.03;;;30.69;34.99
64516;BME280;50891;37.380;-122.076;2022-09-30T01:40:23;100938.09;;;30.66;35.18
64516;BME280;50891;37.380;-122.076;2022-09-30T01:45:53;100927.25;;;30.71;34.79
64516;BME280;50891;37.380;-122.076;2022-09-30T01:48:56;100929.75;;;30.78;35.26
64516;BME280;50891;37.380;-122.076;2022-09-30T01:51:36;100941.78;;;30.87;35.11
64516;BME280;50891;37.380;-122.076;2022-09-30T01:54:36;100929.34;;;30.96;35.26
64516;BME280;50891;37.380;-122.076;2022-09-30T02:00:00;100930.47;;;31.05;35.26
64516;BME280;50891;37.380;-122.076;2022-09-30T02:02:31;100930.44;;;31.00;35.22
64516;BME280;50891;37.380;-122.076;2022-09-30T02:05:06;100933.69;;;31.02;35.58
64516;BME280;50891;37.380;-122.076;2022-09-30T02:07:50;100924.47;;;31.03;35.42
64516;BME280;50891;37.380;-122.076;2022-09-30T02:10:32;100922.00;;;31.02;35.15
64516;BME280;50891;37.380;-122.076;2022-09-30T02:13:09;100923.38;;;31.04;35.77
64516;BME280;50891;37.380;-122.076;2022-09-30T02:15:45;100928.06;;;31.19;35.12
64516;BME280;50891;37.380;-122.076;2022-09-30T02:18:20;100918.28;;;31.23;35.17
64516;BME280;50891;37.380;-122.076;2022-09-30T02:20:53;100921.88;;;31.29;35.13
64516;BME280;50891;37.380;-122.076;2022-09-30T02:23:26;100926.22;;;31.35;35.22
64516;BME280;50891;37.380;-122.076;2022-09-30T02:26:17;100927.66;;;31.43;35.09
64516;BME280;50891;37.380;-122.076;2022-09-30T02:28:55;100924.13;;;31.47;34.99
64516;BME280;50891;37.380;-122.076;2022-09-30T02:31:30;100926.84;;;31.53;34.62
64516;BME280;50891;37.380;-122.076;2022-09-30T02:34:10;100921.16;;;31.54;34.72
64516;BME280;50891;37.380;-122.076;2022-09-30T02:36:55;100911.09;;;31.55;34.80
64516;BME280;50891;37.380;-122.076;2022-09-30T02:42:22;100934.47;;;31.61;34.82
64516;BME280;50891;37.380;-122.076;2022-09-30T02:44:52;100925.25;;;31.62;34.82
64516;BME280;50891;37.380;-122.076;2022-09-30T02:58:03;100916.53;;;31.65;34.48
64516;BME280;50891;37.380;-122.076;2022-09-30T03:00:33;100926.06;;;31.62;34.47
64516;BME280;50891;37.380;-122.076;2022-09-30T03:03:05;100913.81;;;31.60;34.66
64516;BME280;50891;37.380;-122.076;2022-09-30T03:05:32;100923.59;;;31.61;34.53
64516;BME280;50891;37.380;-122.076;2022-09-30T03:07:59;100919.81;;;31.62;34.45
64516;BME280;50891;37.380;-122.076;2022-09-30T03:10:26;100924.97;;;31.63;34.57
64516;BME280;50891;37.380;-122.076;2022-09-30T03:16:05;100914.63;;;31.65;35.11
64516;BME280;50891;37.380;-122.076;2022-09-30T03:21:43;100921.41;;;31.63;35.30
64516;BME280;50891;37.380;-122.076;2022-09-30T03:30:02;100921.47;;;31.73;35.60
64516;BME280;50891;37.380;-122.076;2022-09-30T03:35:26;100930.16;;;31.75;35.99
64516;BME280;50891;37.380;-122.076;2022-09-30T03:43:35;100930.97;;;31.76;35.85
64516;BME280;50891;37.380;-122.076;2022-09-30T03:46:29;100925.53;;;31.76;36.01
64516;BME280;50891;37.380;-122.076;2022-09-30T03:49:01;100925.53;;;31.76;36.02
64516;BME280;50891;37.380;-122.076;2022-09-30T03:51:29;100931.78;;;31.76;36.11
64516;BME280;50891;37.380;-122.076;2022-09-30T03:53:57;100920.91;;;31.76;36.09
64516;BME280;50891;37.380;-122.076;2022-09-30T03:56:30;100920.09;;;31.76;35.99
64516;BME280;50891;37.380;-122.076;2022-09-30T03:58:56;100926.34;;;31.76;36.11
64516;BME280;50891;37.380;-122.076;2022-09-30T04:01:23;100920.09;;;31.76;36.15
64516;BME280;50891;37.380;-122.076;2022-09-30T04:03:50;100923.09;;;31.74;36.32
64516;BME280;50891;37.380;-122.076;2022-09-30T04:06:19;100926.91;;;31.73;35.81
64516;BME280;50891;37.380;-122.076;2022-09-30T04:08:46;100919.81;;;31.72;36.17
64516;BME280;50891;37.380;-122.076;2022-09-30T04:11:12;100925.78;;;31.69;36.24
64516;BME280;50891;37.380;-122.076;2022-09-30T04:13:38;100924.44;;;31.66;36.12
64516;BME280;50891;37.380;-122.076;2022-09-30T04:16:05;100921.97;;;31.65;36.15
64516;BME280;50891;37.380;-122.076;2022-09-30T04:18:35;100924.16;;;31.63;36.25
64516;BME280;50891;37.380;-122.076;2022-09-30T04:21:12;100930.69;;;31.62;36.34
64516;BME280;50891;37.380;-122.076;2022-09-30T04:23:40;100925.25;;;31.62;36.39
64516;BME280;50891;37.380;-122.076;2022-09-30T04:26:12;100922.53;;;31.62;36.46
64516;BME280;50891;37.380;-122.076;2022-09-30T04:28:38;100915.97;;;31.58;36.35
64516;BME280;50891;37.380;-122.076;2022-09-30T04:31:05;100923.03;;;31.54;36.54
64516;BME280;50891;37.380;-122.076;2022-09-30T04:33:32;100918.13;;;31.50;36.21
64516;BME280;50891;37.380;-122.076;2022-09-30T04:35:59;100915.97;;;31.53;36.60
64516;BME280;50891;37.380;-122.076;2022-09-30T04:38:26;100917.03;;;31.52;36.94
64516;BME280;50891;37.380;-122.076;2022-09-30T04:40:52;100913.50;;;31.46;38.39
64516;BME280;50891;37.380;-122.076;2022-09-30T04:43:23;100914.59;;;31.45;38.48
64516;BME280;50891;37.380;-122.076;2022-09-30T04:45:50;100911.88;;;31.45;38.66
64516;BME280;50891;37.380;-122.076;2022-09-30T04:48:17;100908.31;;;31.44;39.31
64516;BME280;50891;37.380;-122.076;2022-09-30T04:50:44;100910.19;;;31.39;39.57
64516;BME280;50891;37.380;-122.076;2022-09-30T04:53:14;100914.78;;;31.28;39.88
64516;BME280;50891;37.380;-122.076;2022-09-30T04:55:41;100910.44;;;31.22;39.93
64516;BME280;50891;37.380;-122.076;2022-09-30T04:58:08;100909.56;;;31.16;39.99
64516;BME280;50891;37.380;-122.076;2022-09-30T05:00:35;100907.69;;;31.17;40.07
64516;BME280;50891;37.380;-122.076;2022-09-30T05:03:01;100909.00;;;31.14;40.14
64516;BME280;50891;37.380;-122.076;2022-09-30T05:05:28;100906.03;;;31.16;40.53
64516;BME280;50891;37.380;-122.076;2022-09-30T05:08:01;100909.56;;;31.11;40.29
64516;BME280;50891;37.380;-122.076;2022-09-30T05:10:28;100899.47;;;31.06;40.79
64516;BME280;50891;37.380;-122.076;2022-09-30T05:12:55;100894.56;;;30.98;40.68
64516;BME280;50891;37.380;-122.076;2022-09-30T05:15:23;100906.53;;;31.02;41.03
64516;BME280;50891;37.380;-122.076;2022-09-30T05:17:51;100896.75;;;31.06;41.09
64516;BME280;50891;37.380;-122.076;2022-09-30T05:20:18;100906.53;;;31.02;40.88
64516;BME280;50891;37.380;-122.076;2022-09-30T05:22:44;100900.56;;;31.00;40.99
64516;BME280;50891;37.380;-122.076;2022-09-30T05:25:12;100911.69;;;30.99;41.25
64516;BME280;50891;37.380;-122.076;2022-09-30T05:27:38;100897.25;;;30.93;41.20
64516;BME280;50891;37.380;-122.076;2022-09-30T05:30:04;100909.50;;;30.96;40.94
64516;BME280;50891;37.380;-122.076;2022-09-30T05:32:31;100912.22;;;30.96;41.20
64516;BME280;50891;37.380;-122.076;2022-09-30T05:34:57;100904.31;;;30.94;41.50
64516;BME280;50891;37.380;-122.076;2022-09-30T05:37:23;100915.19;;;30.94;41.56
64516;BME280;50891;37.380;-122.076;2022-09-30T05:39:49;100915.13;;;30.84;41.24
64516;BME280;50891;37.380;-122.076;2022-09-30T05:42:16;100913.47;;;30.83;41.49
64516;BME280;50891;37.380;-122.076;2022-09-30T05:44:42;100916.16;;;30.78;41.33
64516;BME280;50891;37.380;-122.076;2022-09-30T05:47:08;100918.84;;;30.73;41.61
64516;BME280;50891;37.380;-122.076;2022-09-30T05:49:36;100911.50;;;30.68;41.25
64516;BME280;50891;37.380;-122.076;2022-09-30T05:52:03;100912.53;;;30.62;41.32
64516;BME280;50891;37.380;-122.076;2022-09-30T05:54:29;100911.16;;;30.54;41.27
64516;BME280;50891;37.380;-122.076;2022-09-30T05:56:56;100914.41;;;30.56;41.55
64516;BME280;50891;37.380;-122.076;2022-09-30T05:59:22;100916.03;;;30.57;41.22
64516;BME280;50891;37.380;-122.076;2022-09-30T06:01:48;100912.47;;;30.52;41.47
64516;BME280;50891;37.380;-122.076;2022-09-30T06:04:15;100917.06;;;30.51;41.31
64516;BME280;50891;37.380;-122.076;2022-09-30T06:06:41;100917.06;;;30.51;41.20
64516;BME280;50891;37.380;-122.076;2022-09-30T06:09:07;100914.63;;;30.50;41.55
64516;BME280;50891;37.380;-122.076;2022-09-30T06:11:33;100918.41;;;30.49;41.28
64516;BME280;50891;37.380;-122.076;2022-09-30T06:13:59;100915.44;;;30.45;41.45
64516;BME280;50891;37.380;-122.076;2022-09-30T06:16:26;100921.66;;;30.45;41.38
64516;BME280;50891;37.380;-122.076;2022-09-30T06:18:52;100915.44;;;30.45;41.40
64516;BME280;50891;37.380;-122.076;2022-09-30T06:21:19;100917.81;;;30.41;40.90
64516;BME280;50891;37.380;-122.076;2022-09-30T06:23:47;100907.44;;;30.28;41.03
64516;BME280;50891;37.380;-122.076;2022-09-30T06:26:13;100915.59;;;30.28;41.23
64516;BME280;50891;37.380;-122.076;2022-09-30T06:28:41;100909.00;;;30.24;41.16
64516;BME280;50891;37.380;-122.076;2022-09-30T06:31:07;100908.19;;;30.23;41.03
64516;BME280;50891;37.380;-122.076;2022-09-30T06:33:34;100888.06;;;30.19;40.95
64516;BME280;50891;37.380;-122.076;2022-09-30T06:36:01;100902.47;;;30.25;40.90
64516;BME280;50891;37.380;-122.076;2022-09-30T06:38:32;100904.44;;;30.30;41.07
64516;BME280;50891;37.380;-122.076;2022-09-30T06:41:02;100898.63;;;30.21;40.76
64516;BME280;50891;37.380;-122.076;2022-09-30T06:43:29;100903.75;;;30.12;40.91
64516;BME280;50891;37.380;-122.076;2022-09-30T06:45:55;100897.19;;;30.08;40.97
64516;BME280;50891;37.380;-122.076;2022-09-30T06:48:21;100894.72;;;30.07;40.93
64516;BME280;50891;37.380;-122.076;2022-09-30T06:50:48;100896.88;;;30.04;40.91
64516;BME280;50891;37.380;-122.076;2022-09-30T06:53:18;100880.84;;;29.98;40.88
64516;BME280;50891;37.380;-122.076;2022-09-30T06:55:44;100897.66;;;30.00;41.02
64516;BME280;50891;37.380;-122.076;2022-09-30T06:58:13;100884.56;;;29.87;40.85
64516;BME280;50891;37.380;-122.076;2022-09-30T07:00:40;100893.84;;;29.96;41.11
64516;BME280;50891;37.380;-122.076;2022-09-30T07:03:07;100893.00;;;29.95;41.01
64516;BME280;50891;37.380;-122.076;2022-09-30T07:05:44;100891.63;;;29.93;40.71
64516;BME280;50891;37.380;-122.076;2022-09-30T07:08:10;100891.03;;;29.86;40.89
64516;BME280;50891;37.380;-122.076;2022-09-30T07:10:36;100895.84;;;29.78;41.21
64516;BME280;50891;37.380;-122.076;2022-09-30T07:13:02;100889.28;;;29.74;40.97
64516;BME280;50891;37.380;-122.076;2022-09-30T07:15:28;100887.63;;;29.68;40.93
64516;BME280;50891;37.380;-122.076;2022-09-30T07:17:55;100884.00;;;29.62;41.15
64516;BME280;50891;37.380;-122.076;2022-09-30T07:20:22;100873.63;;;29.54;41.26
64516;BME280;50891;37.380;-122.076;2022-09-30T07:22:48;100876.34;;;29.54;41.38
64516;BME280;50891;37.380;-122.076;2022-09-30T07:25:14;100870.16;;;29.59;41.20
64516;BME280;50891;37.380;-122.076;2022-09-30T07:27:42;100863.59;;;29.55;40.95
64516;BME280;50891;37.380;-122.076;2022-09-30T07:30:09;100869.53;;;29.52;41.18
64516;BME280;50891;37.380;-122.076;2022-09-30T07:32:36;100872.31;;;29.57;40.94
64516;BME280;50891;37.380;-122.076;2022-09-30T07:35:03;100860.38;;;29.58;40.35
64516;BME280;50891;37.380;-122.076;2022-09-30T07:37:30;100868.31;;;29.65;40.29
64516;BME280;50891;37.380;-122.076;2022-09-30T07:40:04;100854.66;;;29.54;40.18
64516;BME280;50891;37.380;-122.076;2022-09-30T07:42:31;100859.84;;;29.56;40.11
64516;BME280;50891;37.380;-122.076;2022-09-30T07:44:58;100862.59;;;29.61;40.00
64516;BME280;50891;37.380;-122.076;2022-09-30T07:47:24;100867.69;;;29.57;39.79
64516;BME280;50891;37.380;-122.076;2022-09-30T07:49:50;100859.84;;;29.56;39.83
64516;BME280;50891;37.380;-122.076;2022-09-30T07:52:17;100865.50;;;29.54;39.77
64516;BME280;50891;37.380;-122.076;2022-09-30T07:54:43;100854.34;;;29.51;39.77
64516;BME280;50891;37.380;-122.076;2022-09-30T07:57:09;100853.78;;;29.49;39.85
64516;BME280;50891;37.380;-122.076;2022-09-30T07:59:38;100851.06;;;29.49;39.75
64516;BME280;50891;37.380;-122.076;2022-09-30T08:02:06;100841.56;;;29.46;39.87
64516;BME280;50891;37.380;-122.076;2022-09-30T08:04:33;100849.44;;;29.48;39.53
64516;BME280;50891;37.380;-122.076;2022-09-30T08:07:02;100849.69;;;29.46;39.50
64516;BME280;50891;37.380;-122.076;2022-09-30T08:09:30;100850.78;;;29.45;39.61
64516;BME280;50891;37.380;-122.076;2022-09-30T08:11:56;100841.28;;;29.42;39.20
64516;BME280;50891;37.380;-122.076;2022-09-30T08:14:24;100838.50;;;29.37;39.58
64516;BME280;50891;37.380;-122.076;2022-09-30T08:16:51;100842.28;;;29.36;39.48
64516;BME280;50891;37.380;-122.076;2022-09-30T08:19:20;100829.50;;;29.32;39.79
64516;BME280;50891;37.380;-122.076;2022-09-30T08:21:48;100837.34;;;29.28;39.63
64516;BME280;50891;37.380;-122.076;2022-09-30T08:24:14;100825.13;;;29.26;39.50
64516;BME280;50891;37.380;-122.076;2022-09-30T08:26:41;100831.84;;;29.23;39.47
64516;BME280;50891;37.380;-122.076;2022-09-30T08:29:08;100810.59;;;29.10;39.46
64516;BME280;50891;37.380;-122.076;2022-09-30T08:31:36;100831.78;;;29.18;39.33
64516;BME280;50891;37.380;-122.076;2022-09-30T08:34:02;100831.22;;;29.16;39.21
64516;BME280;50891;37.380;-122.076;2022-09-30T08:36:29;100829.59;;;29.15;39.49
64516;BME280;50891;37.380;-122.076;2022-09-30T08:38:55;100834.69;;;29.11;39.38
64516;BME280;50891;37.380;-122.076;2022-09-30T08:41:38;100840.38;;;29.10;39.21
64516;BME280;50891;37.380;-122.076;2022-09-30T08:52:37;100827.50;;;29.00;39.08
64516;BME280;50891;37.380;-122.076;2022-09-30T08:55:05;100835.06;;;28.98;39.00
64516;BME280;50891;37.380;-122.076;2022-09-30T08:57:36;100822.28;;;28.93;38.97
64516;BME280;50891;37.380;-122.076;2022-09-30T09:00:06;100822.53;;;28.92;38.88
64516;BME280;50891;37.380;-122.076;2022-09-30T09:15:00;100835.63;;;28.78;38.74
64516;BME280;50891;37.380;-122.076;2022-09-30T09:20:14;100836.06;;;28.70;38.84
64516;BME280;50891;37.380;-122.076;2022-09-30T09:22:41;100836.56;;;28.67;38.71
64516;BME280;50891;37.380;-122.076;2022-09-30T09:25:18;100846.00;;;28.64;38.63
64516;BME280;50891;37.380;-122.076;2022-09-30T09:27:58;100839.13;;;28.56;38.69
64516;BME280;50891;37.380;-122.076;2022-09-30T09:30:29;100839.44;;;28.60;38.92
64516;BME280;50891;37.380;-122.076;2022-09-30T09:33:01;100841.84;;;28.56;38.75
64516;BME280;50891;37.380;-122.076;2022-09-30T09:46:19;100828.72;;;28.48;38.70
64516;BME280;50891;37.380;-122.076;2022-09-30T09:49:25;100824.41;;;28.47;38.86
64516;BME280;50891;37.380;-122.076;2022-09-30T09:54:25;100815.63;;;28.40;38.59
64516;BME280;50891;37.380;-122.076;2022-09-30T09:57:03;100815.84;;;28.38;38.67
64516;BME280;50891;37.380;-122.076;2022-09-30T09:59:30;100819.63;;;28.37;38.63
64516;BME280;50891;37.380;-122.076;2022-09-30T10:01:59;100808.41;;;28.29;38.61
64516;BME280;50891;37.380;-122.076;2022-09-30T10:04:27;100818.50;;;28.33;38.73
64516;BME280;50891;37.380;-122.076;2022-09-30T10:07:14;100812.75;;;28.30;38.51
64516;BME280;50891;37.380;-122.076;2022-09-30T10:09:41;100815.94;;;28.27;38.49
64516;BME280;50891;37.380;-122.076;2022-09-30T10:15:20;100813.19;;;28.22;38.61
64516;BME280;50891;37.380;-122.076;2022-09-30T10:17:24;100821.81;;;28.19;38.82
64516;BME280;50891;37.380;-122.076;2022-09-30T10:19:54;100820.16;;;28.17;38.60
64516;BME280;50891;37.380;-122.076;2022-09-30T10:22:29;100813.59;;;28.13;38.82
64516;BME280;50891;37.380;-122.076;2022-09-30T10:25:23;100816.56;;;28.12;38.75
64516;BME280;50891;37.380;-122.076;2022-09-30T10:27:58;100808.69;;;28.10;38.85
64516;BME280;50891;37.380;-122.076;2022-09-30T10:30:47;100799.34;;;28.01;38.92
64516;BME280;50891;37.380;-122.076;2022-09-30T10:33:28;100801.00;;;28.02;38.70
64516;BME280;50891;37.380;-122.076;2022-09-30T10:38:27;100804.00;;;28.06;38.54
64516;BME280;50891;37.380;-122.076;2022-09-30T10:40:55;100804.75;;;28.01;38.87
64516;BME280;50891;37.380;-122.076;2022-09-30T10:43:28;100798.78;;;27.99;38.85
64516;BME280;50891;37.380;-122.076;2022-09-30T10:45:57;100800.09;;;27.97;38.88
64516;BME280;50891;37.380;-122.076;2022-09-30T10:48:30;100790.50;;;27.89;38.67
64516;BME280;50891;37.380;-122.076;2022-09-30T10:50:58;100806.00;;;27.93;38.87
64516;BME280;50891;37.380;-122.076;2022-09-30T10:53:30;100805.66;;;27.90;38.79
64516;BME280;50891;37.380;-122.076;2022-09-30T10:55:57;100806.72;;;27.89;38.91
64516;BME280;50891;37.380;-122.076;2022-09-30T11:01:26;100802.06;;;27.84;38.78
64516;BME280;50891;37.380;-122.076;2022-09-30T11:04:29;100792.78;;;27.80;38.90
64516;BME280;50891;37.380;-122.076;2022-09-30T11:07:02;100796.22;;;27.75;38.83
64516;BME280;50891;37.380;-122.076;2022-09-30T11:09:49;100805.41;;;27.74;38.95
64516;BME280;50891;37.380;-122.076;2022-09-30T11:12:27;100802.13;;;27.72;38.92
64516;BME280;50891;37.380;-122.076;2022-09-30T11:15:26;100806.34;;;27.68;38.83
64516;BME280;50891;37.380;-122.076;2022-09-30T11:20:51;100798.09;;;27.58;39.26
64516;BME280;50891;37.380;-122.076;2022-09-30T11:26:08;100795.63;;;27.57;38.96
64516;BME280;50891;37.380;-122.076;2022-09-30T11:29:14;100790.47;;;27.55;38.84
64516;BME280;50891;37.380;-122.076;2022-09-30T11:31:57;100793.41;;;27.53;39.04
64516;BME280;50891;37.380;-122.076;2022-09-30T11:34:58;100797.16;;;27.52;38.95
64516;BME280;50891;37.380;-122.076;2022-09-30T11:40:30;100788.75;;;27.49;38.87
64516;BME280;50891;37.380;-122.076;2022-09-30T11:48:39;100786.19;;;27.42;38.84
64516;BME280;50891;37.380;-122.076;2022-09-30T11:57:22;100781.75;;;27.36;38.79
64516;BME280;50891;37.380;-122.076;2022-09-30T12:02:43;100782.47;;;27.31;38.93
64516;BME280;50891;37.380;-122.076;2022-09-30T12:05:39;100781.91;;;27.29;39.19
64516;BME280;50891;37.380;-122.076;2022-09-30T12:11:53;100776.41;;;27.24;39.10
64516;BME280;50891;37.380;-122.076;2022-09-30T12:14:41;100777.50;;;27.23;39.06
64516;BME280;50891;37.380;-122.076;2022-09-30T12:19:48;100778.19;;;27.19;38.88
64516;BME280;50891;37.380;-122.076;2022-09-30T12:22:23;100770.22;;;27.12;39.15
64516;BME280;50891;37.380;-122.076;2022-09-30T12:24:53;100768.25;;;27.07;38.92
64516;BME280;50891;37.380;-122.076;2022-09-30T12:27:41;100781.53;;;27.09;39.04
64516;BME280;50891;37.380;-122.076;2022-09-30T12:30:14;100787.72;;;27.09;38.85
64516;BME280;50891;37.380;-122.076;2022-09-30T12:33:09;100779.28;;;27.06;38.92
64516;BME280;50891;37.380;-122.076;2022-09-30T12:49:00;100785.22;;;26.91;39.17
64516;BME280;50891;37.380;-122.076;2022-09-30T12:51:32;100788.41;;;26.88;39.09
64516;BME280;50891;37.380;-122.076;2022-09-30T12:54:13;100774.94;;;26.76;39.07
64516;BME280;50891;37.380;-122.076;2022-09-30T12:56:42;100789.34;;;26.82;39.11
64516;BME280;50891;37.380;-122.076;2022-09-30T12:59:10;100781.88;;;26.72;39.21
64516;BME280;50891;37.380;-122.076;2022-09-30T13:01:39;100793.34;;;26.79;39.32
64516;BME280;50891;37.380;-122.076;2022-09-30T13:04:09;100796.53;;;26.76;39.34
64516;BME280;50891;37.380;-122.076;2022-09-30T13:10:15;100796.75;;;26.75;39.14
64516;BME280;50891;37.380;-122.076;2022-09-30T13:12:22;100799.47;;;26.75;39.20
64516;BME280;50891;37.380;-122.076;2022-09-30T13:15:25;100802.66;;;26.72;39.12
64516;BME280;50891;37.380;-122.076;2022-09-30T13:23:44;100806.38;;;26.70;39.17
64516;BME280;50891;37.380;-122.076;2022-09-30T13:28:50;100806.28;;;26.65;39.23
64516;BME280;50891;37.380;-122.076;2022-09-30T13:31:22;100789.88;;;26.55;39.17
64516;BME280;50891;37.380;-122.076;2022-09-30T13:39:44;100795.47;;;26.54;39.39
64516;BME280;50891;37.380;-122.076;2022-09-30T13:52:41;100783.63;;;26.43;39.44
64516;BME280;50891;37.380;-122.076;2022-09-30T13:55:19;100782.00;;;26.42;39.50
64516;BME280;50891;37.380;-122.076;2022-09-30T13:57:51;100791.13;;;26.41;39.56
64516;BME280;50891;37.380;-122.076;2022-09-30T14:00:21;100783.31;;;26.39;39.33
64516;BME280;50891;37.380;-122.076;2022-09-30T14:11:01;100777.22;;;26.32;39.52
64516;BME280;50891;37.380;-122.076;2022-09-30T14:13:51;100786.34;;;26.31;39.61
64516;BME280;50891;37.380;-122.076;2022-09-30T14:16:47;100784.94;;;26.28;39.67
64516;BME280;50891;37.380;-122.076;2022-09-30T14:21:43;100778.63;;;26.23;39.87
64516;BME280;50891;37.380;-122.076;2022-09-30T14:24:24;100786.13;;;26.21;39.79
64516;BME280;50891;37.380;-122.076;2022-09-30T14:31:51;100790.34;;;26.17;40.13
64516;BME280;50891;37.380;-122.076;2022-09-30T14:34:18;100794.09;;;26.16;40.25
64516;BME280;50891;37.380;-122.076;2022-09-30T14:36:47;100797.84;;;26.15;40.25
64516;BME280;50891;37.380;-122.076;2022-09-30T14:39:20;100800.78;;;26.13;40.37
64516;BME280;50891;37.380;-122.076;2022-09-30T14:41:53;100801.84;;;26.12;40.41
64516;BME280;50891;37.380;-122.076;2022-09-30T14:44:24;100804.19;;;26.09;40.54
64516;BME280;50891;37.380;-122.076;2022-09-30T14:46:51;100799.25;;;26.05;40.59
64516;BME280;50891;37.380;-122.076;2022-09-30T14:49:25;100804.63;;;26.05;40.63
64516;BME280;50891;37.380;-122.076;2022-09-30T14:51:58;100804.63;;;26.05;40.73
64516;BME280;50891;37.380;-122.076;2022-09-30T14:54:29;100806.75;;;26.03;40.75
64516;BME280;50891;37.380;-122.076;2022-09-30T14:56:58;100806.16;;;26.01;40.83
64516;BME280;50891;37.380;-122.076;2022-09-30T14:59:28;100810.50;;;26.02;40.91
64516;BME280;50891;37.380;-122.076;2022-09-30T15:02:02;100815.91;;;26.02;40.95
64516;BME280;50891;37.380;-122.076;2022-09-30T15:04:42;100799.72;;;26.02;41.05
64516;BME280;50891;37.380;-122.076;2022-09-30T15:07:11;100807.00;;;26.02;41.14
64516;BME280;50891;37.380;-122.076;2022-09-30T15:09:39;100814.59;;;26.05;40.93
64516;BME280;50891;37.380;-122.076;2022-09-30T15:14:49;100809.59;;;26.09;41.15
64516;BME280;50891;37.380;-122.076;2022-09-30T15:17:24;100804.75;;;26.11;41.06
64516;BME280;50891;37.380;-122.076;2022-09-30T15:19:52;100802.06;;;26.11;41.30
64516;BME280;50891;37.380;-122.076;2022-09-30T15:22:22;100806.41;;;26.12;41.10
64516;BME280;50891;37.380;-122.076;2022-09-30T15:24:50;100813.22;;;26.14;41.01
64516;BME280;50891;37.380;-122.076;2022-09-30T15:27:30;100804.06;;;26.15;40.92
64516;BME280;50891;37.380;-122.076;2022-09-30T15:30:27;100803.22;;;26.15;41.21
64516;BME280;50891;37.380;-122.076;2022-09-30T15:33:02;100808.19;;;26.18;41.05
64516;BME280;50891;37.380;-122.076;2022-09-30T15:35:30;100812.50;;;26.19;40.95
64516;BME280;50891;37.380;-122.076;2022-09-30T15:38:09;100809.81;;;26.19;41.11
64516;BME280;50891;37.380;-122.076;2022-09-30T15:40:44;100807.94;;;26.19;41.03
64516;BME280;50891;37.380;-122.076;2022-09-30T15:43:12;100810.63;;;26.19;41.02
64516;BME280;50891;37.380;-122.076;2022-09-30T15:45:43;100818.50;;;26.21;41.05
64516;BME280;50891;37.380;-122.076;2022-09-30T15:50:49;100810.63;;;26.19;40.96